• Join FlightAware (Why Join?)
  • Login
  • US Flag 
12:31PM EDT


 

Airport Tracker/Info


-or-


 

Live Flight TrackerFlight Track Log ✈ AAL945 ✈ 21-May-2012 ✈ KDFW - SCEL / SCL

Flight Track Log - Related Links

Times and Time Zones

All times are in EDT time to prevent confusion due to time zone crossing. See the AAL945 flight status page for this flight to view local times or setup timezone preferences in your user account.

Time Position Orientation Groundspeed Altitude Reporting Facility
EDT Latitude Longitude Course Direction KTS MPH feet Rate Location/Type
10:37PM 32.8287 -97.0333 349° North  Level FlightAware Approximate
10:38PM 32.9278 -97.0558 261° West 195 224 1,700  Level FAA TRACON SMA TRACON (SMA)
10:43PM 32.8975 -97.2775 175° South 361 415 11,100 1,920 Climbing FAA TRACON SMA TRACON (SMA)
10:43PM 32.8228 -97.2700 158° South 396 456 12,300 1,860 Climbing FAA TRACON SMA TRACON (SMA)
10:44PM 32.7906 -97.2547 146° Southeast 405 466 13,000 2,580 Climbing FAA TRACON SMA TRACON (SMA)
10:44PM 32.7611 -97.2314 145° Southeast 410 472 13,900 2,520 Climbing FAA TRACON SMA TRACON (SMA)
10:44PM 32.7247 -97.2011 143° Southeast 416 479 14,700 2,220 Climbing FAA TRACON SMA TRACON (SMA)
10:45PM 32.6956 -97.1753 143° Southeast 421 484 15,400 2,100 Climbing FAA TRACON SMA TRACON (SMA)
10:45PM 32.6664 -97.1494 143° Southeast 425 489 16,100 2,400 Climbing FAA TRACON SMA TRACON (SMA)
10:45PM 32.6297 -97.1169 143° Southeast 427 491 17,000 2,220 Climbing FAA TRACON SMA TRACON (SMA)
10:46PM 32.5997 -97.0900 144° Southeast 434 499 17,600 2,100 Climbing FAA TRACON SMA TRACON (SMA)
10:46PM 32.5622 -97.0578 144° Southeast 435 501 18,400 1,980 Climbing FAA TRACON SMA TRACON (SMA)
10:46PM 32.5317 -97.0311 143° Southeast 438 504 18,900 1,680 Climbing FAA TRACON SMA TRACON (SMA)
10:47PM 32.5011 -97.0033 144° Southeast 445 512 19,500 1,860 Climbing FAA TRACON SMA TRACON (SMA)
10:47PM 32.4619 -96.9700 143° Southeast 449 517 20,200 1,800 Climbing FAA TRACON SMA TRACON (SMA)
10:47PM 32.4306 -96.9419 145° Southeast 457 526 20,700 1,680 Climbing FAA TRACON SMA TRACON (SMA)
10:48PM 32.3036 -96.8376 153° Southeast 479 551 22,700 1,740 Climbing FlightAware ADS-B
10:49PM 32.2727 -96.8186 160° South 484 557 23,200 1,380 Climbing FlightAware ADS-B
10:49PM 32.2181 -96.7945 162° South 491 565 23,700 1,320 Climbing FlightAware ADS-B
10:50PM 32.1479 -96.7683 163° South 498 573 24,500 1,500 Climbing FlightAware ADS-B
10:50PM 32.0813 -96.7439 163° South 503 579 25,300 1,380 Climbing FlightAware ADS-B
10:51PM 31.9967 -96.7128 162° South 511 588 26,100 1,380 Climbing FlightAware ADS-B
10:51PM 31.9184 -96.6834 162° South 513 590 27,000 1,740 Climbing FlightAware ADS-B
10:52PM 31.8349 -96.6508 160° South 509 586 28,200 1,740 Climbing FlightAware ADS-B
10:52PM 31.7668 -96.6218 160° South 506 582 29,000 1,620 Climbing FlightAware ADS-B
10:53PM 31.6990 -96.5930 160° South 504 580 29,900 1,500 Climbing FlightAware ADS-B
10:53PM 31.6310 -96.5643 160° South 503 579 30,600 1,320 Climbing FlightAware ADS-B
10:54PM 31.5649 -96.5367 161° South 501 577 31,300 1,320 Climbing FlightAware ADS-B
10:54PM 31.4968 -96.5087 162° South 498 573 32,000 1,200 Climbing FlightAware ADS-B
10:55PM 31.4296 -96.4831 162° South 497 572 32,600 960 Climbing FlightAware ADS-B
10:56PM 31.3630 -96.4581 162° South 499 574 33,000 360 Climbing FlightAware ADS-B
10:56PM 31.2963 -96.4330 162° South 502 578 33,000  Level FlightAware ADS-B
10:57PM 31.2262 -96.4069 161° South 501 577 33,000  Level FlightAware ADS-B
10:57PM 31.1710 -96.3853 157° South 498 573 33,000  Level FlightAware ADS-B
10:57PM 31.1433 -96.3717 153° Southeast 498 573 33,000  Level FlightAware ADS-B
10:57PM 31.1088 -96.3511 149° Southeast 497 572 33,000  Level FlightAware ADS-B
10:58PM 31.0819 -96.3321 145° Southeast 495 570 33,000  Level FlightAware ADS-B
10:58PM 31.0256 -96.2859 145° Southeast 495 570 33,000  Level FlightAware ADS-B
10:59PM 30.9694 -96.2397 145° Southeast 496 571 33,000  Level FlightAware ADS-B
10:59PM 30.9131 -96.1934 145° Southeast 497 572 33,000  Level FlightAware ADS-B
11:00PM 30.8543 -96.1451 145° Southeast 499 574 33,000  Level FlightAware ADS-B
11:00PM 30.8033 -96.1036 148° Southeast 499 574 33,000  Level FlightAware ADS-B
11:00PM 30.7806 -96.0871 153° Southeast 499 574 33,000  Level FlightAware ADS-B
11:01PM 30.7185 -96.0510 154° Southeast 500 575 33,000  Level FlightAware ADS-B
11:01PM 30.6551 -96.0150 154° Southeast 501 577 33,000  Level FlightAware ADS-B
11:02PM 30.5877 -95.9767 154° Southeast 502 578 33,000  Level FlightAware ADS-B
11:02PM 30.5250 -95.9409 154° Southeast 502 578 33,000  Level FlightAware ADS-B
11:03PM 30.4618 -95.9046 154° Southeast 501 577 33,000  Level FlightAware ADS-B
11:03PM 30.3994 -95.8689 154° Southeast 501 577 33,000  Level FlightAware ADS-B
11:04PM 30.3365 -95.8331 154° Southeast 501 577 33,000  Level FlightAware ADS-B
11:04PM 30.2739 -95.7972 154° Southeast 500 575 33,000  Level FlightAware ADS-B
11:05PM 30.2117 -95.7615 154° Southeast 500 575 33,000  Level FlightAware ADS-B
11:05PM 30.1487 -95.7252 153° Southeast 499 574 33,000  Level FlightAware ADS-B
11:06PM 30.0859 -95.6890 154° Southeast 499 574 33,000  Level FlightAware ADS-B
11:06PM 30.0231 -95.6530 153° Southeast 498 573 33,000  Level FlightAware ADS-B
11:07PM 29.9613 -95.6171 153° Southeast 498 573 33,000  Level FlightAware ADS-B
11:07PM 29.8979 -95.5802 153° Southeast 497 572 33,000  Level FlightAware ADS-B
11:08PM 29.8358 -95.5442 153° Southeast 498 573 33,000  Level FlightAware ADS-B
11:08PM 29.7661 -95.5036 152° Southeast 499 574 33,000  Level FlightAware ADS-B
11:09PM 29.6995 -95.4633 149° Southeast 500 575 33,000  Level FlightAware ADS-B
11:09PM 29.6541 -95.4324 147° Southeast 500 575 33,000  Level FlightAware ADS-B
11:10PM 29.5949 -95.3877 147° Southeast 499 574 33,000  Level FlightAware ADS-B
11:10PM 29.5357 -95.3433 147° Southeast 500 575 33,000  Level FlightAware ADS-B
11:11PM 29.4770 -95.2997 147° Southeast 500 575 33,000  Level FlightAware ADS-B
11:11PM 29.4181 -95.2564 147° Southeast 499 574 33,000  Level FlightAware ADS-B
11:12PM 29.3582 -95.2123 147° Southeast 499 574 33,000  Level FlightAware ADS-B
11:12PM 29.2997 -95.1694 147° Southeast 501 577 33,000  Level FlightAware ADS-B
11:13PM 29.2436 -95.1284 147° Southeast 500 575 33,000  Level FlightAware ADS-B
11:13PM 29.1801 -95.0817 147° Southeast 500 575 33,000  Level FlightAware ADS-B
11:14PM 29.1199 -95.0378 147° Southeast 501 577 33,000  Level FlightAware ADS-B
11:15PM 29.0607 -94.9940 147° Southeast 502 578 33,000  Level FlightAware ADS-B
11:15PM 29.0017 -94.9507 147° Southeast 502 578 33,000  Level FlightAware ADS-B
11:16PM 28.9419 -94.9068 147° Southeast 503 579 33,000  Level FlightAware ADS-B
11:16PM 28.8827 -94.8632 147° Southeast 503 579 33,000  Level FlightAware ADS-B
11:17PM 28.8237 -94.8197 147° Southeast 505 581 33,000  Level FlightAware ADS-B
11:17PM 28.7646 -94.7765 147° Southeast 504 580 33,000  Level FlightAware ADS-B
11:18PM 28.7042 -94.7322 147° Southeast 505 581 33,000  Level FlightAware ADS-B
11:18PM 28.6452 -94.6891 147° Southeast 505 581 33,000  Level FlightAware ADS-B
11:19PM 28.5845 -94.6448 147° Southeast 505 581 33,000  Level FlightAware ADS-B
11:19PM 28.5252 -94.6014 147° Southeast 504 580 33,000  Level FlightAware ADS-B
11:20PM 28.4663 -94.5583 147° Southeast 505 581 33,000  Level FlightAware ADS-B
11:20PM 28.4065 -94.5148 147° Southeast 503 579 33,000  Level FlightAware ADS-B
11:21PM 28.3463 -94.4711 147° Southeast 502 578 33,000  Level FlightAware ADS-B
11:21PM 28.2773 -94.4210 147° Southeast 502 578 33,000  Level FlightAware ADS-B
11:22PM 28.2151 -94.3756 147° Southeast 501 577 33,000  Level FlightAware ADS-B
11:22PM 28.1550 -94.3319 147° Southeast 501 577 33,000  Level FlightAware ADS-B
11:23PM 28.0900 -94.2845 129° Southeast 501 577 33,000  Level FlightAware ADS-B
11:23PM 28.0767 -94.2656 150° Southeast 502 578 33,000  Level Houston Center
11:24PM 27.9297 -94.1686 147° Southeast 501 577 33,000  Level FlightAware ADS-B
11:25PM 27.8692 -94.1250 147° Southeast 498 573 33,000  Level FlightAware ADS-B
11:26PM 27.7403 -94.0321 126° Southeast 497 572 33,000  Level FlightAware ADS-B
11:26PM 27.7281 -94.0133 148° Southeast 491 565 33,000  Level Houston Center
11:27PM 27.6106 -93.9308 149° Southeast 491 565 33,000  Level Houston Center
11:28PM 27.4282 -93.8087 148° Southeast 493 567 33,000  Level FlightAware ADS-B
11:29PM 27.3687 -93.7664 148° Southeast 493 567 33,000  Level FlightAware ADS-B
11:30PM 27.2447 -93.6777 148° Southeast 493 567 33,000  Level FlightAware ADS-B
11:31PM 27.1781 -93.6305 147° Southeast 493 567 33,000  Level FlightAware ADS-B
11:32PM 27.0256 -93.5178 148° Southeast 500 575 33,000  Level Houston Center
11:33PM 26.9053 -93.4342 148° Southeast 500 575 33,000  Level Houston Center
11:34PM 26.7875 -93.3508 148° Southeast 500 575 33,000  Level Houston Center
11:35PM 26.6672 -93.2678 148° Southeast 500 575 33,000  Level Houston Center
11:36PM 26.5492 -93.1847 148° Southeast 500 575 33,000  Level Houston Center
11:37PM 26.4289 -93.1019 148° Southeast 500 575 33,000  Level Houston Center
11:38PM 26.3106 -93.0192 148° Southeast 500 575 33,000  Level Houston Center
11:39PM 26.1903 -92.9367 148° Southeast 500 575 33,000  Level Houston Center
11:40PM 26.0717 -92.8544 149° Southeast 500 575 33,000  Level Houston Center
11:41PM 25.9514 -92.7725 148° Southeast 500 575 33,000  Level Houston Center
11:42PM 25.8328 -92.6906 149° Southeast 500 575 33,000  Level Houston Center
11:43PM 25.7122 -92.6086 148° Southeast 500 575 33,000  Level Houston Center
11:44PM 25.5939 -92.5272 149° Southeast 500 575 33,000  Level Houston Center
11:45PM 25.4772 -92.4503 150° Southeast 500 575 33,000  Level Houston Center
11:46PM 25.3628 -92.3758 149° Southeast 500 575 33,000  Level Houston Center
11:47PM 25.2483 -92.2994 150° Southeast 500 575 33,000  Level Houston Center
11:48PM 25.1336 -92.2256 149° Southeast 500 575 33,000  Level Houston Center
11:49PM 25.0192 -92.1492 150° Southeast 500 575 33,000  Level Houston Center
11:50PM 24.9044 -92.0756 149° Southeast 500 575 33,000  Level Houston Center
11:51PM 24.7897 -91.9997 150° Southeast 500 575 33,000  Level Houston Center
11:52PM 24.6750 -91.9261 149° Southeast 500 575 33,000  Level Houston Center
11:53PM 24.5603 -91.8506 149° Southeast 500 575 33,000  Level Houston Center
11:54PM 24.4456 -91.7750 149° Southeast 500 575 33,000  Level Houston Center
11:55PM 24.3244 -91.6953 149° Southeast 500 575 33,000  Level Houston Center
11:56PM 24.2056 -91.6156 149° Southeast 500 575 33,000  Level Houston Center
11:57PM 24.0844 -91.5361 149° Southeast 500 575 33,000  Level Houston Center
11:58PM 23.9653 -91.4567 149° Southeast 500 575 33,000  Level Houston Center
11:59PM 23.8442 -91.3775 149° Southeast 500 575 33,000  Level Houston Center
12:00AM 23.7250 -91.2983 149° Southeast 500 575 33,000  Level Houston Center
12:01AM 23.6036 -91.2194 149° Southeast 500 575 33,000  Level Houston Center
12:02AM 23.4844 -91.1406 149° Southeast 500 575 33,000  Level Houston Center
12:03AM 23.3631 -91.0619 149° Southeast 500 575 33,000  Level Houston Center
12:04AM 23.2439 -90.9836 149° Southeast 500 575 33,000  Level Houston Center
12:05AM 23.1222 -90.9053 149° Southeast 500 575 33,000  Level Houston Center
12:06AM 23.0031 -90.8272 149° Southeast 500 575 33,000  Level Houston Center
12:07AM 22.8814 -90.7492 149° Southeast 500 575 33,000  Level Houston Center
12:08AM 22.7619 -90.6714 149° Southeast 500 575 33,000  Level Houston Center
12:09AM 22.6406 -90.5936 149° Southeast 500 575 33,000  Level Houston Center
12:10AM 22.5211 -90.5161 150° Southeast 500 575 33,000  Level Houston Center
12:11AM 22.3994 -90.4389 149° Southeast 500 575 33,000  Level Houston Center
12:12AM 22.2800 -90.3617 155° Southeast 500 575 33,000  Level Houston Center
12:20AM 21.3645 -89.8992 158° South  Level FlightAware Approximate
12:21AM 21.2458 -89.8488 158° South  Level FlightAware Approximate
12:22AM 21.1272 -89.7984 158° South  Level FlightAware Approximate
12:23AM 21.0085 -89.7482 131° Southeast  Level FlightAware Approximate
12:24AM 20.9249 -89.6466 159° South  Level FlightAware Approximate
12:25AM 20.8055 -89.5982 159° South  Level FlightAware Approximate
12:26AM 20.6862 -89.5499 159° South  Level FlightAware Approximate
12:27AM 20.5669 -89.5016 159° South  Level FlightAware Approximate
12:28AM 20.4475 -89.4534 159° South  Level FlightAware Approximate
12:29AM 20.3281 -89.4053 162° South  Level FlightAware Approximate
12:30AM 20.2074 -89.3625 163° South  Level FlightAware Approximate
12:31AM 20.0851 -89.3237 163° South  Level FlightAware Approximate
12:32AM 19.9628 -89.2850 163° South  Level FlightAware Approximate
12:33AM 19.8405 -89.2463 163° South  Level FlightAware Approximate
12:34AM 19.7182 -89.2076 163° South  Level FlightAware Approximate
12:35AM 19.5959 -89.1691 163° South  Level FlightAware Approximate
12:36AM 19.4736 -89.1306 163° South  Level FlightAware Approximate
12:37AM 19.3512 -89.0921 163° South  Level FlightAware Approximate
12:38AM 19.2289 -89.0537 164° South  Level FlightAware Approximate
12:39AM 19.1065 -89.0154 164° South  Level FlightAware Approximate
12:40AM 18.9841 -88.9771 164° South  Level FlightAware Approximate
12:41AM 18.8618 -88.9389 164° South  Level FlightAware Approximate
12:42AM 18.7394 -88.9007 164° South  Level FlightAware Approximate
12:43AM 18.6170 -88.8626 164° South  Level FlightAware Approximate
12:44AM 18.4946 -88.8246 164° South  Level FlightAware Approximate
12:45AM 18.3722 -88.7866 162° South  Level FlightAware Approximate
12:46AM 18.2507 -88.7455 162° South  Level FlightAware Approximate
12:47AM 18.1292 -88.7044 162° South  Level FlightAware Approximate
12:48AM 18.0077 -88.6634 162° South  Level FlightAware Approximate
12:49AM 17.8862 -88.6224 161° South  Level FlightAware Approximate
12:50AM 17.7654 -88.5792 161° South  Level FlightAware Approximate
12:51AM 17.6446 -88.5361 161° South  Level FlightAware Approximate
12:52AM 17.5238 -88.4931 161° South  Level FlightAware Approximate
12:53AM 17.4035 -88.4485 161° South  Level FlightAware Approximate
12:54AM 17.2831 -88.4040 161° South  Level FlightAware Approximate
12:55AM 17.1628 -88.3595 160° South  Level FlightAware Approximate
12:56AM 17.0431 -88.3132 160° South  Level FlightAware Approximate
12:57AM 16.9234 -88.2671 160° South  Level FlightAware Approximate
12:58AM 16.8037 -88.2209 160° South  Level FlightAware Approximate
12:59AM 16.6839 -88.1749 160° South  Level FlightAware Approximate
01:00AM 16.5642 -88.1289 160° South  Level FlightAware Approximate
01:01AM 16.4444 -88.0829 160° South  Level FlightAware Approximate
01:02AM 16.3246 -88.0370 160° South  Level FlightAware Approximate
01:03AM 16.2049 -87.9912 196° South  Level FlightAware Approximate
01:04AM 16.0867 -88.0272 155° Southeast  Level FlightAware Approximate
01:05AM 15.9708 -87.9716 155° Southeast  Level FlightAware Approximate
01:06AM 15.8549 -87.9160 155° Southeast  Level FlightAware Approximate
01:07AM 15.7390 -87.8605 155° Southeast  Level FlightAware Approximate
01:08AM 15.6231 -87.8051 155° Southeast  Level FlightAware Approximate
01:09AM 15.5071 -87.7498 155° Southeast  Level FlightAware Approximate
01:10AM 15.3912 -87.6945 155° Southeast  Level FlightAware Approximate
01:11AM 15.2752 -87.6393 155° Southeast  Level FlightAware Approximate
01:12AM 15.1593 -87.5841 155° Southeast  Level FlightAware Approximate
01:13AM 15.0433 -87.5290 155° Southeast  Level FlightAware Approximate
01:14AM 14.9273 -87.4740 156° South  Level FlightAware Approximate
01:15AM 14.8107 -87.4202 156° South  Level FlightAware Approximate
01:16AM 14.6942 -87.3665 156° South  Level FlightAware Approximate
01:17AM 14.5776 -87.3129 156° South  Level FlightAware Approximate
01:18AM 14.4610 -87.2593 156° South  Level FlightAware Approximate
01:19AM 14.3444 -87.2058 156° South  Level FlightAware Approximate
01:20AM 14.2278 -87.1523 156° South  Level FlightAware Approximate
01:21AM 14.1112 -87.0989 156° South  Level FlightAware Approximate
01:22AM 13.9946 -87.0455 158° South  Level FlightAware Approximate
01:23AM 13.8760 -86.9968 158° South  Level FlightAware Approximate
01:24AM 13.7575 -86.9482 158° South  Level FlightAware Approximate
01:25AM 13.6389 -86.8996 158° South  Level FlightAware Approximate
01:26AM 13.5204 -86.8511 158° South  Level FlightAware Approximate
01:27AM 13.4018 -86.8026 158° South  Level FlightAware Approximate
01:28AM 13.2832 -86.7542 158° South  Level FlightAware Approximate
01:29AM 13.1646 -86.7058 158° South  Level FlightAware Approximate
01:30AM 13.0460 -86.6575 159° South  Level FlightAware Approximate
01:31AM 12.9267 -86.6111 159° South  Level FlightAware Approximate
01:32AM 12.8074 -86.5647 159° South  Level FlightAware Approximate
01:33AM 12.6880 -86.5184 159° South  Level FlightAware Approximate
01:34AM 12.5687 -86.4721 159° South  Level FlightAware Approximate
01:35AM 12.4493 -86.4259 159° South  Level FlightAware Approximate
01:36AM 12.3300 -86.3797 159° South  Level FlightAware Approximate
01:37AM 12.2106 -86.3335 159° South  Level FlightAware Approximate
01:38AM 12.0912 -86.2874 161° South  Level FlightAware Approximate
01:39AM 11.9705 -86.2451 161° South  Level FlightAware Approximate
01:40AM 11.8498 -86.2029 161° South  Level FlightAware Approximate
01:41AM 11.7290 -86.1607 161° South  Level FlightAware Approximate
01:42AM 11.6083 -86.1186 161° South  Level FlightAware Approximate
01:43AM 11.4875 -86.0764 161° South  Level FlightAware Approximate
01:44AM 11.3668 -86.0343 161° South  Level FlightAware Approximate
01:45AM 11.2460 -85.9923 161° South  Level FlightAware Approximate
01:46AM 11.1253 -85.9503 161° South  Level FlightAware Approximate
01:47AM 11.0045 -85.9083 161° South  Level FlightAware Approximate
01:48AM 10.8837 -85.8663 161° South  Level FlightAware Approximate
01:49AM 10.7630 -85.8244 161° South  Level FlightAware Approximate
01:50AM 10.6422 -85.7825 161° South  Level FlightAware Approximate
01:51AM 10.5214 -85.7407 161° South  Level FlightAware Approximate
01:52AM 10.4006 -85.6988 161° South  Level FlightAware Approximate
01:53AM 10.2798 -85.6571 161° South  Level FlightAware Approximate
01:54AM 10.1590 -85.6153 161° South  Level FlightAware Approximate
01:55AM 10.0382 -85.5736 161° South  Level FlightAware Approximate
01:56AM 9.9173 -85.5319 161° South  Level FlightAware Approximate
01:57AM 9.7965 -85.4902 161° South  Level FlightAware Approximate
01:58AM 9.6757 -85.4486 161° South  Level FlightAware Approximate
01:59AM 9.5549 -85.4070 161° South  Level FlightAware Approximate
02:00AM 9.4340 -85.3654 163° South  Level FlightAware Approximate
02:01AM 9.3120 -85.3278 163° South  Level FlightAware Approximate
02:02AM 9.1899 -85.2901 163° South  Level FlightAware Approximate
02:03AM 9.0678 -85.2525 163° South  Level FlightAware Approximate
02:04AM 8.9457 -85.2149 163° South  Level FlightAware Approximate
02:05AM 8.8236 -85.1774 163° South  Level FlightAware Approximate
02:06AM 8.7015 -85.1398 163° South  Level FlightAware Approximate
02:07AM 8.5794 -85.1023 163° South  Level FlightAware Approximate
02:08AM 8.4573 -85.0648 163° South  Level FlightAware Approximate
02:09AM 8.3352 -85.0274 163° South  Level FlightAware Approximate
02:10AM 8.2131 -84.9899 163° South  Level FlightAware Approximate
02:11AM 8.0910 -84.9525 163° South  Level FlightAware Approximate
02:12AM 7.9689 -84.9151 163° South  Level FlightAware Approximate
02:13AM 7.8468 -84.8777 163° South  Level FlightAware Approximate
02:14AM 7.7247 -84.8404 163° South  Level FlightAware Approximate
02:15AM 7.6025 -84.8030 163° South  Level FlightAware Approximate
02:16AM 7.4804 -84.7657 163° South  Level FlightAware Approximate
02:17AM 7.3583 -84.7284 163° South  Level FlightAware Approximate
02:18AM 7.2361 -84.6912 163° South  Level FlightAware Approximate
02:19AM 7.1140 -84.6539 163° South  Level FlightAware Approximate
02:20AM 6.9919 -84.6167 163° South  Level FlightAware Approximate
02:21AM 6.8697 -84.5795 163° South  Level FlightAware Approximate
02:22AM 6.7476 -84.5423 163° South  Level FlightAware Approximate
02:23AM 6.6254 -84.5051 163° South  Level FlightAware Approximate
02:24AM 6.5033 -84.4680 163° South  Level FlightAware Approximate
02:25AM 6.3811 -84.4308 163° South  Level FlightAware Approximate
02:26AM 6.2590 -84.3937 163° South  Level FlightAware Approximate
02:27AM 6.1368 -84.3566 163° South  Level FlightAware Approximate
02:28AM 6.0147 -84.3195 163° South  Level FlightAware Approximate
02:29AM 5.8925 -84.2825 163° South  Level FlightAware Approximate
02:30AM 5.7703 -84.2455 158° South  Level FlightAware Approximate
02:31AM 5.6518 -84.1980 158° South  Level FlightAware Approximate
02:32AM 5.5333 -84.1505 158° South  Level FlightAware Approximate
02:33AM 5.4147 -84.1030 158° South  Level FlightAware Approximate
02:34AM 5.2962 -84.0556 158° South  Level FlightAware Approximate
02:35AM 5.1776 -84.0082 158° South  Level FlightAware Approximate
02:36AM 5.0591 -83.9608 158° South  Level FlightAware Approximate
02:37AM 4.9405 -83.9134 158° South  Level FlightAware Approximate
02:38AM 4.8220 -83.8660 158° South  Level FlightAware Approximate
02:39AM 4.7034 -83.8187 158° South  Level FlightAware Approximate
02:40AM 4.5848 -83.7714 158° South  Level FlightAware Approximate
02:41AM 4.4663 -83.7241 158° South  Level FlightAware Approximate
02:42AM 4.3477 -83.6768 158° South  Level FlightAware Approximate
02:43AM 4.2291 -83.6295 158° South  Level FlightAware Approximate
02:44AM 4.1106 -83.5822 158° South  Level FlightAware Approximate
02:45AM 3.9920 -83.5349 158° South  Level FlightAware Approximate
02:46AM 3.8734 -83.4877 158° South  Level FlightAware Approximate
02:47AM 3.7548 -83.4405 158° South  Level FlightAware Approximate
02:48AM 3.6362 -83.3932 158° South  Level FlightAware Approximate
02:49AM 3.5176 -83.3460 158° South  Level FlightAware Approximate
02:50AM 3.3990 -83.2989 158° South  Level FlightAware Approximate
02:51AM 3.2805 -83.2517 158° South  Level FlightAware Approximate
02:52AM 3.1619 -83.2045 158° South  Level FlightAware Approximate
02:53AM 3.0433 -83.1573 158° South  Level FlightAware Approximate
02:54AM 2.9247 -83.1102 158° South  Level FlightAware Approximate
02:55AM 2.8061 -83.0630 158° South  Level FlightAware Approximate
02:56AM 2.6875 -83.0159 158° South  Level FlightAware Approximate
02:57AM 2.5689 -82.9688 158° South  Level FlightAware Approximate
02:58AM 2.4502 -82.9217 158° South  Level FlightAware Approximate
02:59AM 2.3316 -82.8746 158° South  Level FlightAware Approximate
03:00AM 2.2130 -82.8275 158° South  Level FlightAware Approximate
03:01AM 2.0944 -82.7804 158° South  Level FlightAware Approximate
03:02AM 1.9758 -82.7333 158° South  Level FlightAware Approximate
03:03AM 1.8572 -82.6862 158° South  Level FlightAware Approximate
03:04AM 1.7386 -82.6392 162° South  Level FlightAware Approximate
03:05AM 1.6169 -82.6007 162° South  Level FlightAware Approximate
03:06AM 1.4952 -82.5622 162° South  Level FlightAware Approximate
03:07AM 1.3736 -82.5238 162° South  Level FlightAware Approximate
03:08AM 1.2519 -82.4853 162° South  Level FlightAware Approximate
03:09AM 1.1302 -82.4469 162° South  Level FlightAware Approximate
03:10AM 1.0085 -82.4084 162° South  Level FlightAware Approximate
03:11AM 0.8869 -82.3700 162° South  Level FlightAware Approximate
03:12AM 0.7652 -82.3315 162° South  Level FlightAware Approximate
03:13AM 0.6435 -82.2931 162° South  Level FlightAware Approximate
03:14AM 0.5218 -82.2546 162° South  Level FlightAware Approximate
03:15AM 0.4001 -82.2162 162° South  Level FlightAware Approximate
03:16AM 0.2785 -82.1778 162° South  Level FlightAware Approximate
03:17AM 0.1568 -82.1393 162° South  Level FlightAware Approximate
03:18AM 0.0351 -82.1009 162° South  Level FlightAware Approximate
03:19AM -0.0866 -82.0624 162° South  Level FlightAware Approximate
03:20AM -0.2083 -82.0240 162° South  Level FlightAware Approximate
03:21AM -0.3299 -81.9856 162° South  Level FlightAware Approximate
03:22AM -0.4516 -81.9471 162° South  Level FlightAware Approximate
03:23AM -0.5733 -81.9087 162° South  Level FlightAware Approximate
03:24AM -0.6950 -81.8702 162° South  Level FlightAware Approximate
03:25AM -0.8167 -81.8318 162° South  Level FlightAware Approximate
03:26AM -0.9383 -81.7934 162° South  Level FlightAware Approximate
03:27AM -1.0600 -81.7549 162° South  Level FlightAware Approximate
03:28AM -1.1817 -81.7165 162° South  Level FlightAware Approximate
03:29AM -1.3034 -81.6780 162° South  Level FlightAware Approximate
03:30AM -1.4250 -81.6395 162° South  Level FlightAware Approximate
03:31AM -1.5467 -81.6011 162° South  Level FlightAware Approximate
03:32AM -1.6684 -81.5626 162° South  Level FlightAware Approximate
03:33AM -1.7901 -81.5241 162° South  Level FlightAware Approximate
03:34AM -1.9117 -81.4857 162° South  Level FlightAware Approximate
03:35AM -2.0334 -81.4472 162° South  Level FlightAware Approximate
03:36AM -2.1551 -81.4087 162° South  Level FlightAware Approximate
03:37AM -2.2767 -81.3702 162° South  Level FlightAware Approximate
03:38AM -2.3984 -81.3317 162° South  Level FlightAware Approximate
03:39AM -2.5201 -81.2932 162° South  Level FlightAware Approximate
03:40AM -2.6417 -81.2547 162° South  Level FlightAware Approximate
03:41AM -2.7634 -81.2161 162° South  Level FlightAware Approximate
03:42AM -2.8851 -81.1776 162° South  Level FlightAware Approximate
03:43AM -3.0067 -81.1391 162° South  Level FlightAware Approximate
03:44AM -3.1284 -81.1005 162° South  Level FlightAware Approximate
03:45AM -3.2500 -81.0620 162° South  Level FlightAware Approximate
03:46AM -3.3717 -81.0234 162° South  Level FlightAware Approximate
03:47AM -3.4934 -80.9848 162° South  Level FlightAware Approximate
03:48AM -3.6150 -80.9463 162° South  Level FlightAware Approximate
03:49AM -3.7367 -80.9077 162° South  Level FlightAware Approximate
03:50AM -3.8583 -80.8690 162° South  Level FlightAware Approximate
03:51AM -3.9800 -80.8304 162° South  Level FlightAware Approximate
03:52AM -4.1016 -80.7918 162° South  Level FlightAware Approximate
03:53AM -4.2233 -80.7532 162° South  Level FlightAware Approximate
03:54AM -4.3449 -80.7145 162° South  Level FlightAware Approximate
03:55AM -4.4665 -80.6758 162° South  Level FlightAware Approximate
03:56AM -4.5882 -80.6372 162° South  Level FlightAware Approximate
03:57AM -4.7098 -80.5985 162° South  Level FlightAware Approximate
03:58AM -4.8314 -80.5598 162° South  Level FlightAware Approximate
03:59AM -4.9531 -80.5210 162° South  Level FlightAware Approximate
04:00AM -5.0747 -80.4823 162° South  Level FlightAware Approximate
04:01AM -5.1963 -80.4436 162° South  Level FlightAware Approximate
04:02AM -5.3180 -80.4048 162° South  Level FlightAware Approximate
04:03AM -5.4396 -80.3660 162° South  Level FlightAware Approximate
04:04AM -5.5612 -80.3272 162° South  Level FlightAware Approximate
04:05AM -5.6828 -80.2884 162° South  Level FlightAware Approximate
04:06AM -5.8045 -80.2496 162° South  Level FlightAware Approximate
04:07AM -5.9261 -80.2108 162° South  Level FlightAware Approximate
04:08AM -6.0477 -80.1719 162° South  Level FlightAware Approximate
04:09AM -6.1693 -80.1330 162° South  Level FlightAware Approximate
04:10AM -6.2909 -80.0941 162° South  Level FlightAware Approximate
04:11AM -6.4125 -80.0552 162° South  Level FlightAware Approximate
04:12AM -6.5341 -80.0163 162° South  Level FlightAware Approximate
04:13AM -6.6557 -79.9773 162° South  Level FlightAware Approximate
04:14AM -6.7773 -79.9383 162° South  Level FlightAware Approximate
04:15AM -6.8989 -79.8994 162° South  Level FlightAware Approximate
04:16AM -7.0205 -79.8604 162° South  Level FlightAware Approximate
04:17AM -7.1420 -79.8213 162° South  Level FlightAware Approximate
04:18AM -7.2636 -79.7823 162° South  Level FlightAware Approximate
04:19AM -7.3852 -79.7432 162° South  Level FlightAware Approximate
04:20AM -7.5068 -79.7041 162° South  Level FlightAware Approximate
04:21AM -7.6283 -79.6650 162° South  Level FlightAware Approximate
04:22AM -7.7499 -79.6259 162° South  Level FlightAware Approximate
04:23AM -7.8715 -79.5867 162° South  Level FlightAware Approximate
04:24AM -7.9930 -79.5475 162° South  Level FlightAware Approximate
04:25AM -8.1146 -79.5083 162° South  Level FlightAware Approximate
04:26AM -8.2361 -79.4691 162° South  Level FlightAware Approximate
04:27AM -8.3577 -79.4298 162° South  Level FlightAware Approximate
04:28AM -8.4792 -79.3906 162° South  Level FlightAware Approximate
04:29AM -8.6008 -79.3512 162° South  Level FlightAware Approximate
04:30AM -8.7223 -79.3119 162° South  Level FlightAware Approximate
04:31AM -8.8438 -79.2726 162° South  Level FlightAware Approximate
04:32AM -8.9654 -79.2332 162° South  Level FlightAware Approximate
04:33AM -9.0869 -79.1938 162° South  Level FlightAware Approximate
04:34AM -9.2084 -79.1543 162° South  Level FlightAware Approximate
04:35AM -9.3299 -79.1149 162° South  Level FlightAware Approximate
04:36AM -9.4514 -79.0754 162° South  Level FlightAware Approximate
04:37AM -9.5730 -79.0359 162° South  Level FlightAware Approximate
04:38AM -9.6945 -78.9963 162° South  Level FlightAware Approximate
04:39AM -9.8160 -78.9568 162° South  Level FlightAware Approximate
04:40AM -9.9374 -78.9172 162° South  Level FlightAware Approximate
04:41AM -10.0589 -78.8775 162° South  Level FlightAware Approximate
04:42AM -10.1804 -78.8379 162° South  Level FlightAware Approximate
04:43AM -10.3019 -78.7982 162° South  Level FlightAware Approximate
04:44AM -10.4234 -78.7585 162° South  Level FlightAware Approximate
04:45AM -10.5448 -78.7187 162° South  Level FlightAware Approximate
04:46AM -10.6663 -78.6789 162° South  Level FlightAware Approximate
04:47AM -10.7878 -78.6391 162° South  Level FlightAware Approximate
04:48AM -10.9092 -78.5992 162° South  Level FlightAware Approximate
04:49AM -11.0307 -78.5594 162° South  Level FlightAware Approximate
04:50AM -11.1521 -78.5194 162° South  Level FlightAware Approximate
04:51AM -11.2735 -78.4795 162° South  Level FlightAware Approximate
04:52AM -11.3950 -78.4395 162° South  Level FlightAware Approximate
04:53AM -11.5164 -78.3995 162° South  Level FlightAware Approximate
04:54AM -11.6378 -78.3594 162° South  Level FlightAware Approximate
04:55AM -11.7592 -78.3194 163° South  Level FlightAware Approximate
04:56AM -11.8814 -78.2819 163° South  Level FlightAware Approximate
04:57AM -12.0037 -78.2443 163° South  Level FlightAware Approximate
04:58AM -12.1259 -78.2068 163° South  Level FlightAware Approximate
04:59AM -12.2481 -78.1692 163° South  Level FlightAware Approximate
05:00AM -12.3703 -78.1316 163° South  Level FlightAware Approximate
05:01AM -12.4925 -78.0939 163° South  Level FlightAware Approximate
05:02AM -12.6146 -78.0563 163° South  Level FlightAware Approximate
05:03AM -12.7368 -78.0185 163° South  Level FlightAware Approximate
05:04AM -12.8590 -77.9808 163° South  Level FlightAware Approximate
05:05AM -12.9812 -77.9429 163° South  Level FlightAware Approximate
05:06AM -13.1033 -77.9051 163° South  Level FlightAware Approximate
05:07AM -13.2255 -77.8672 163° South  Level FlightAware Approximate
05:08AM -13.3476 -77.8293 163° South  Level FlightAware Approximate
05:09AM -13.4698 -77.7914 163° South  Level FlightAware Approximate
05:10AM -13.5919 -77.7534 163° South  Level FlightAware Approximate
05:11AM -13.7141 -77.7154 163° South  Level FlightAware Approximate
05:12AM -13.8362 -77.6773 163° South  Level FlightAware Approximate
05:13AM -13.9583 -77.6392 163° South  Level FlightAware Approximate
05:14AM -14.0804 -77.6010 163° South  Level FlightAware Approximate
05:15AM -14.2025 -77.5628 163° South  Level FlightAware Approximate
05:16AM -14.3247 -77.5246 163° South  Level FlightAware Approximate
05:17AM -14.4468 -77.4863 163° South  Level FlightAware Approximate
05:18AM -14.5688 -77.4480 163° South  Level FlightAware Approximate
05:19AM -14.6909 -77.4097 163° South  Level FlightAware Approximate
05:20AM -14.8130 -77.3713 163° South  Level FlightAware Approximate
05:21AM -14.9351 -77.3328 163° South  Level FlightAware Approximate
05:22AM -15.0572 -77.2943 163° South  Level FlightAware Approximate
05:23AM -15.1792 -77.2558 163° South  Level FlightAware Approximate
05:24AM -15.3013 -77.2172 163° South  Level FlightAware Approximate
05:25AM -15.4233 -77.1786 163° South  Level FlightAware Approximate
05:26AM -15.5454 -77.1400 163° South  Level FlightAware Approximate
05:27AM -15.6674 -77.1013 163° South  Level FlightAware Approximate
05:28AM -15.7895 -77.0626 163° South  Level FlightAware Approximate
05:29AM -15.9115 -77.0238 163° South  Level FlightAware Approximate
05:30AM -16.0335 -76.9850 163° South  Level FlightAware Approximate
05:31AM -16.1556 -76.9462 163° South  Level FlightAware Approximate
05:32AM -16.2776 -76.9072 163° South  Level FlightAware Approximate
05:33AM -16.3996 -76.8683 163° South  Level FlightAware Approximate
05:34AM -16.5216 -76.8293 163° South  Level FlightAware Approximate
05:35AM -16.6436 -76.7902 163° South  Level FlightAware Approximate
05:36AM -16.7655 -76.7511 163° South  Level FlightAware Approximate
05:37AM -16.8875 -76.7119 163° South  Level FlightAware Approximate
05:38AM -17.0095 -76.6727 163° South  Level FlightAware Approximate
05:39AM -17.1314 -76.6335 163° South  Level FlightAware Approximate
05:40AM -17.2534 -76.5942 163° South  Level FlightAware Approximate
05:41AM -17.3753 -76.5548 163° South  Level FlightAware Approximate
05:42AM -17.4973 -76.5154 163° South  Level FlightAware Approximate
05:43AM -17.6192 -76.4759 163° South  Level FlightAware Approximate
05:44AM -17.7411 -76.4364 163° South  Level FlightAware Approximate
05:45AM -17.8630 -76.3968 163° South  Level FlightAware Approximate
05:46AM -17.9849 -76.3572 163° South  Level FlightAware Approximate
05:47AM -18.1068 -76.3175 163° South  Level FlightAware Approximate
05:48AM -18.2287 -76.2778 163° South  Level FlightAware Approximate
05:49AM -18.3506 -76.2380 163° South  Level FlightAware Approximate
05:50AM -18.4725 -76.1981 163° South  Level FlightAware Approximate
05:51AM -18.5944 -76.1582 163° South  Level FlightAware Approximate
05:52AM -18.7162 -76.1182 163° South  Level FlightAware Approximate
05:53AM -18.8381 -76.0782 163° South  Level FlightAware Approximate
05:54AM -18.9599 -76.0381 163° South  Level FlightAware Approximate
05:55AM -19.0817 -75.9980 163° South  Level FlightAware Approximate
05:56AM -19.2036 -75.9578 163° South  Level FlightAware Approximate
05:57AM -19.3254 -75.9175 163° South  Level FlightAware Approximate
05:58AM -19.4472 -75.8772 163° South  Level FlightAware Approximate
05:59AM -19.5690 -75.8369 163° South  Level FlightAware Approximate
06:00AM -19.6908 -75.7964 163° South  Level FlightAware Approximate
06:01AM -19.8125 -75.7559 163° South  Level FlightAware Approximate
06:02AM -19.9343 -75.7153 163° South  Level FlightAware Approximate
06:03AM -20.0561 -75.6747 163° South  Level FlightAware Approximate
06:04AM -20.1778 -75.6340 163° South  Level FlightAware Approximate
06:05AM -20.2995 -75.5933 163° South  Level FlightAware Approximate
06:06AM -20.4213 -75.5525 163° South  Level FlightAware Approximate
06:07AM -20.5430 -75.5116 163° South  Level FlightAware Approximate
06:08AM -20.6647 -75.4706 163° South  Level FlightAware Approximate
06:09AM -20.7864 -75.4296 162° South  Level FlightAware Approximate
06:10AM -20.9081 -75.3885 162° South  Level FlightAware Approximate
06:11AM -21.0298 -75.3474 162° South  Level FlightAware Approximate
06:12AM -21.1514 -75.3062 162° South  Level FlightAware Approximate
06:13AM -21.2731 -75.2649 162° South  Level FlightAware Approximate
06:14AM -21.3948 -75.2236 162° South  Level FlightAware Approximate
06:15AM -21.5164 -75.1822 162° South  Level FlightAware Approximate
06:16AM -21.6380 -75.1407 162° South  Level FlightAware Approximate
06:17AM -21.7596 -75.0991 162° South  Level FlightAware Approximate
06:18AM -21.8813 -75.0575 162° South  Level FlightAware Approximate
06:19AM -22.0029 -75.0158 162° South  Level FlightAware Approximate
06:20AM -22.1245 -74.9740 162° South  Level FlightAware Approximate
06:21AM -22.2460 -74.9322 162° South  Level FlightAware Approximate
06:22AM -22.3676 -74.8903 162° South  Level FlightAware Approximate
06:23AM -22.4892 -74.8483 162° South  Level FlightAware Approximate
06:24AM -22.6107 -74.8062 162° South  Level FlightAware Approximate
06:25AM -22.7323 -74.7641 162° South  Level FlightAware Approximate
06:26AM -22.8538 -74.7219 162° South  Level FlightAware Approximate
06:27AM -22.9753 -74.6796 162° South  Level FlightAware Approximate
06:28AM -23.0968 -74.6373 162° South  Level FlightAware Approximate
06:29AM -23.2183 -74.5948 162° South  Level FlightAware Approximate
06:30AM -23.3398 -74.5523 162° South  Level FlightAware Approximate
06:31AM -23.4612 -74.5097 162° South  Level FlightAware Approximate
06:32AM -23.5827 -74.4670 162° South  Level FlightAware Approximate
06:33AM -23.7041 -74.4243 162° South  Level FlightAware Approximate
06:34AM -23.8256 -74.3815 162° South  Level FlightAware Approximate
06:35AM -23.9470 -74.3385 162° South  Level FlightAware Approximate
06:36AM -24.0684 -74.2956 162° South  Level FlightAware Approximate
06:37AM -24.1898 -74.2525 162° South  Level FlightAware Approximate
06:38AM -24.3112 -74.2093 162° South  Level FlightAware Approximate
06:39AM -24.4326 -74.1661 162° South  Level FlightAware Approximate
06:40AM -24.5539 -74.1228 162° South  Level FlightAware Approximate
06:41AM -24.6753 -74.0794 162° South  Level FlightAware Approximate
06:42AM -24.7966 -74.0359 162° South  Level FlightAware Approximate
06:43AM -24.9194 -73.9918 162° South  Level FlightAware Approximate
06:44AM -25.0421 -73.9476 162° South  Level FlightAware Approximate
06:45AM -25.1648 -73.9034 162° South  Level FlightAware Approximate
06:46AM -25.2875 -73.8590 162° South  Level FlightAware Approximate
06:47AM -25.4102 -73.8146 162° South  Level FlightAware Approximate
06:48AM -25.5329 -73.7700 162° South  Level FlightAware Approximate
06:49AM -25.6556 -73.7254 162° South  Level FlightAware Approximate
06:50AM -25.7782 -73.6807 162° South  Level FlightAware Approximate
06:51AM -25.9009 -73.6359 162° South  Level FlightAware Approximate
06:52AM -26.0235 -73.5910 162° South  Level FlightAware Approximate
06:53AM -26.1461 -73.5460 162° South  Level FlightAware Approximate
06:54AM -26.2687 -73.5009 162° South  Level FlightAware Approximate
06:55AM -26.3913 -73.4557 162° South  Level FlightAware Approximate
06:56AM -26.5139 -73.4104 162° South  Level FlightAware Approximate
06:57AM -26.6364 -73.3651 162° South  Level FlightAware Approximate
06:58AM -26.7591 -73.3200 162° South  Level FlightAware Approximate
06:59AM -26.8818 -73.2749 162° South  Level FlightAware Approximate
07:00AM -27.0044 -73.2297 162° South  Level FlightAware Approximate
07:01AM -27.1270 -73.1843 162° South  Level FlightAware Approximate
07:02AM -27.2497 -73.1389 162° South  Level FlightAware Approximate
07:03AM -27.3723 -73.0934 162° South  Level FlightAware Approximate
07:04AM -27.4948 -73.0478 162° South  Level FlightAware Approximate
07:05AM -27.6174 -73.0020 162° South  Level FlightAware Approximate
07:06AM -27.7400 -72.9562 162° South  Level FlightAware Approximate
07:07AM -27.8625 -72.9103 162° South  Level FlightAware Approximate
07:08AM -27.9850 -72.8642 162° South  Level FlightAware Approximate
07:09AM -28.1075 -72.8181 162° South  Level FlightAware Approximate
07:10AM -28.2300 -72.7718 162° South  Level FlightAware Approximate
07:11AM -28.3525 -72.7255 162° South  Level FlightAware Approximate
07:12AM -28.4750 -72.6790 162° South  Level FlightAware Approximate
07:13AM -28.5974 -72.6324 162° South  Level FlightAware Approximate
07:14AM -28.7199 -72.5858 161° South  Level FlightAware Approximate
07:15AM -28.8423 -72.5390 161° South  Level FlightAware Approximate
07:16AM -28.9647 -72.4921 161° South  Level FlightAware Approximate
07:17AM -29.0871 -72.4451 161° South  Level FlightAware Approximate
07:18AM -29.2094 -72.3979 161° South  Level FlightAware Approximate
07:19AM -29.3318 -72.3507 161° South  Level FlightAware Approximate
07:20AM -29.4541 -72.3034 162° South  Level FlightAware Approximate
07:21AM -29.5767 -72.2569 162° South  Level FlightAware Approximate
07:22AM -29.6993 -72.2103 162° South  Level FlightAware Approximate
07:23AM -29.8218 -72.1635 162° South  Level FlightAware Approximate
07:24AM -29.9444 -72.1167 162° South  Level FlightAware Approximate
07:25AM -30.0669 -72.0697 162° South  Level FlightAware Approximate
07:26AM -30.1894 -72.0227 162° South  Level FlightAware Approximate
07:27AM -30.3119 -71.9755 162° South  Level FlightAware Approximate
07:28AM -30.4344 -71.9282 162° South  Level FlightAware Approximate
07:29AM -30.5569 -71.8807 162° South  Level FlightAware Approximate
07:30AM -30.6793 -71.8332 162° South  Level FlightAware Approximate
07:31AM -30.8018 -71.7855 161° South  Level FlightAware Approximate
07:32AM -30.9242 -71.7377 161° South  Level FlightAware Approximate
07:33AM -31.0466 -71.6898 161° South  Level FlightAware Approximate
07:34AM -31.1689 -71.6418 161° South  Level FlightAware Approximate
07:35AM -31.2913 -71.5936 161° South  Level FlightAware Approximate
07:36AM -31.4136 -71.5453 161° South  Level FlightAware Approximate
07:37AM -31.5360 -71.4969 161° South  Level FlightAware Approximate
07:38AM -31.6583 -71.4484 161° South  Level FlightAware Approximate
07:39AM -31.7805 -71.3997 161° South  Level FlightAware Approximate
07:40AM -31.9028 -71.3510 161° South  Level FlightAware Approximate
07:41AM -32.0251 -71.3020 161° South  Level FlightAware Approximate
07:42AM -32.1473 -71.2530 161° South  Level FlightAware Approximate
07:43AM -32.2695 -71.2038 161° South  Level FlightAware Approximate
07:44AM -32.3917 -71.1545 161° South  Level FlightAware Approximate